createdAt,value
2023-03-20T07:57:32.970Z,1022.16
2023-03-20T07:57:44.195Z,1022.14
2023-03-20T07:57:54.117Z,1022.21
2023-03-20T07:58:04.410Z,1022.20
2023-03-20T07:58:14.402Z,1022.22
2023-03-20T07:58:24.624Z,1022.20
2023-03-20T07:58:34.583Z,1022.16
2023-03-20T07:58:46.205Z,1022.14
2023-03-20T07:58:55.397Z,1022.18
2023-03-20T07:59:04.995Z,1022.17
2023-03-20T07:59:16.011Z,1022.21
2023-03-20T07:59:27.565Z,1022.20
2023-03-20T07:59:35.133Z,1022.20
2023-03-20T07:59:45.489Z,1022.23
2023-03-20T07:59:55.839Z,1022.22
2023-03-20T08:00:05.724Z,1022.17
2023-03-20T08:00:15.829Z,1022.20
2023-03-20T08:00:27.997Z,1022.20
2023-03-20T08:00:35.901Z,1022.25
2023-03-20T08:00:46.026Z,1022.20
2023-03-20T08:00:56.181Z,1022.17
2023-03-20T08:01:06.357Z,1022.19
2023-03-20T08:01:16.434Z,1022.17
2023-03-20T08:01:27.310Z,1022.19
2023-03-20T08:01:36.739Z,1022.19
2023-03-20T08:01:46.856Z,1022.24
2023-03-20T08:01:57.023Z,1022.16
2023-03-20T08:02:07.150Z,1022.21
2023-03-20T08:02:17.220Z,1022.19
2023-03-20T08:02:27.401Z,1022.23
2023-03-20T08:02:37.446Z,1022.23
2023-03-20T08:02:47.753Z,1022.22
2023-03-20T08:02:57.849Z,1022.22
2023-03-20T08:03:07.850Z,1022.21
2023-03-20T08:03:18.087Z,1022.21
2023-03-20T08:03:28.148Z,1022.24
2023-03-20T08:03:38.262Z,1022.22
2023-03-20T08:03:48.357Z,1022.19
2023-03-20T08:03:58.528Z,1022.20
2023-03-20T08:04:08.708Z,1022.20
2023-03-20T08:04:18.691Z,1022.19
2023-03-20T08:04:28.761Z,1022.23
2023-03-20T08:04:38.924Z,1022.21
2023-03-20T08:04:49.128Z,1022.21
2023-03-20T08:04:59.227Z,1022.21
2023-03-20T08:05:09.859Z,1022.15
2023-03-20T08:05:19.404Z,1022.22
2023-03-20T08:05:29.572Z,1022.25
2023-03-20T08:05:39.706Z,1022.23
2023-03-20T08:05:49.893Z,1022.22
2023-03-20T08:05:59.933Z,1022.25
2023-03-20T08:06:10.067Z,1022.27
2023-03-20T08:06:20.166Z,1022.24
2023-03-20T08:06:30.300Z,1022.29
2023-03-20T08:06:40.394Z,1022.29
2023-03-20T08:06:50.756Z,1022.29
2023-03-20T08:07:00.718Z,1022.30
2023-03-20T08:07:10.866Z,1022.29
2023-03-20T08:07:20.993Z,1022.31
2023-03-20T08:07:31.993Z,1022.31
2023-03-20T08:07:41.768Z,1022.28
2023-03-20T08:07:51.285Z,1022.32
2023-03-20T08:08:01.323Z,1022.33
2023-03-20T08:08:11.639Z,1022.31
2023-03-20T08:08:21.674Z,1022.34
2023-03-20T08:08:31.817Z,1022.30
2023-03-20T08:08:41.847Z,1022.33
2023-03-20T08:08:51.945Z,1022.35
2023-03-20T08:09:02.035Z,1022.33
2023-03-20T08:09:12.235Z,1022.31
2023-03-20T08:09:22.303Z,1022.32
2023-03-20T08:09:33.907Z,1022.27
2023-03-20T08:09:42.729Z,1022.27
2023-03-20T08:09:52.927Z,1022.32
2023-03-20T08:10:02.986Z,1022.34
2023-03-20T08:10:14.098Z,1022.31
2023-03-20T08:10:23.225Z,1022.30
2023-03-20T08:10:33.742Z,1022.32
2023-03-20T08:10:43.455Z,1022.31
2023-03-20T08:10:53.511Z,1022.32
2023-03-20T08:11:03.742Z,1022.34
2023-03-20T08:11:13.674Z,1022.36
2023-03-20T08:11:23.765Z,1022.38
2023-03-20T08:11:34.748Z,1022.35
2023-03-20T08:11:43.925Z,1022.33
2023-03-20T08:11:54.127Z,1022.29
2023-03-20T08:12:04.290Z,1022.33
2023-03-20T08:12:14.525Z,1022.35
2023-03-20T08:12:24.529Z,1022.36
2023-03-20T08:12:34.744Z,1022.32
2023-03-20T08:12:44.816Z,1022.36
2023-03-20T08:12:55.121Z,1022.30
2023-03-20T08:13:05.096Z,1022.30
2023-03-20T08:13:18.993Z,1022.31
2023-03-20T08:13:25.373Z,1022.32
2023-03-20T08:13:35.533Z,1022.34
2023-03-20T08:13:45.682Z,1022.32
2023-03-20T08:13:55.737Z,1022.31
2023-03-20T08:14:05.802Z,1022.27
2023-03-20T08:14:15.997Z,1022.28
2023-03-20T08:14:27.287Z,1022.31
2023-03-20T08:14:36.259Z,1022.32
2023-03-20T08:14:46.342Z,1022.33
2023-03-20T08:14:56.391Z,1022.36
2023-03-20T08:15:06.479Z,1022.32
2023-03-20T08:15:16.706Z,1022.34
2023-03-20T08:15:26.964Z,1022.22
2023-03-20T08:15:37.140Z,1022.37
2023-03-20T08:15:47.117Z,1022.31
2023-03-20T08:15:57.171Z,1022.34
2023-03-20T08:16:07.244Z,1022.29
2023-03-20T08:16:17.375Z,1022.32
2023-03-20T08:16:27.479Z,1022.32
2023-03-20T08:16:37.662Z,1022.29
2023-03-20T08:16:49.337Z,1022.31
2023-03-20T08:17:13.279Z,1022.30
2023-03-20T08:17:21.618Z,1022.31
2023-03-20T08:17:27.433Z,1022.34
2023-03-20T08:17:37.467Z,1022.35
2023-03-20T08:17:47.607Z,1022.34
2023-03-20T08:17:57.740Z,1022.34
2023-03-20T08:18:08.010Z,1022.33
2023-03-20T08:18:18.039Z,1022.30
2023-03-20T08:18:28.154Z,1022.32
2023-03-20T08:18:38.184Z,1022.28
2023-03-20T08:18:48.438Z,1022.28
2023-03-20T08:18:58.407Z,1022.26
2023-03-20T08:19:08.489Z,1022.26
2023-03-20T08:19:18.713Z,1022.29
2023-03-20T08:19:28.803Z,1022.29
2023-03-20T08:19:39.098Z,1022.32
2023-03-20T08:19:49.035Z,1022.28
2023-03-20T08:19:59.181Z,1022.28
2023-03-20T08:20:09.207Z,1022.21
2023-03-20T08:20:19.455Z,1022.29
2023-03-20T08:20:30.599Z,1022.28
2023-03-20T08:20:39.828Z,1022.25
2023-03-20T08:20:49.817Z,1022.27
2023-03-20T08:21:00.007Z,1022.27
2023-03-20T08:21:10.313Z,1022.29
2023-03-20T08:21:20.148Z,1022.23
2023-03-20T08:21:30.318Z,1022.28
2023-03-20T08:21:40.401Z,1022.27
2023-03-20T08:21:50.588Z,1022.28
2023-03-20T08:22:00.718Z,1022.19
2023-03-20T08:22:10.956Z,1022.21
2023-03-20T08:22:20.981Z,1022.21
2023-03-20T08:22:31.052Z,1022.17
2023-03-20T08:22:41.190Z,1022.20
2023-03-20T08:22:51.388Z,1022.17
2023-03-20T08:23:02.886Z,1022.17
2023-03-20T08:23:12.449Z,1022.14
2023-03-20T08:23:22.343Z,1022.13
2023-03-20T08:23:31.830Z,1022.12
2023-03-20T08:23:42.105Z,1022.10
2023-03-20T08:23:53.005Z,1022.10
2023-03-20T08:24:02.369Z,1022.03
2023-03-20T08:24:12.600Z,1021.92
2023-03-20T08:24:23.374Z,1021.88
2023-03-20T08:24:33.979Z,1022.04
2023-03-20T08:24:43.429Z,1022.06
2023-03-20T08:24:53.513Z,1022.09
2023-03-20T08:25:03.900Z,1022.01
2023-03-20T08:25:13.129Z,1021.99
2023-03-20T08:25:23.405Z,1022.01
2023-03-20T08:25:33.419Z,1022.05
2023-03-20T08:25:44.310Z,1021.97
2023-03-20T08:25:53.598Z,1021.97
2023-03-20T08:26:03.690Z,1021.94
2023-03-20T08:26:13.786Z,1021.92
2023-03-20T08:26:23.801Z,1021.89
2023-03-20T08:26:34.022Z,1021.94
2023-03-20T08:26:44.340Z,1022.11
2023-03-20T08:26:55.029Z,1021.97
2023-03-20T08:27:04.338Z,1022.03
2023-03-20T08:27:14.436Z,1021.99
2023-03-20T08:27:25.484Z,1022.13
2023-03-20T08:27:34.788Z,1021.93
2023-03-20T08:27:44.915Z,1022.02
2023-03-20T08:27:54.979Z,1021.91
2023-03-20T08:28:05.103Z,1022.01
2023-03-20T08:28:15.196Z,1021.92
2023-03-20T08:28:40.196Z,1022.02
2023-03-20T08:28:52.470Z,1021.94
2023-03-20T08:28:58.071Z,1021.92
2023-03-20T08:29:08.208Z,1021.90
2023-03-20T08:29:18.438Z,1021.88
2023-03-20T08:29:28.560Z,1021.85
2023-03-20T08:29:38.593Z,1021.86
2023-03-20T08:29:48.855Z,1021.88
2023-03-20T08:29:58.962Z,1021.89
2023-03-20T08:30:08.994Z,1021.85
2023-03-20T08:30:19.121Z,1021.86
2023-03-20T08:30:29.311Z,1021.81
2023-03-20T08:30:39.495Z,1021.84
2023-03-20T08:30:49.598Z,1021.70
2023-03-20T08:30:59.863Z,1021.84
2023-03-20T08:31:09.913Z,1021.82
2023-03-20T08:31:19.941Z,1021.85
2023-03-20T08:31:29.911Z,1021.84
2023-03-20T08:31:40.199Z,1021.84
2023-03-20T08:31:50.220Z,1021.78
2023-03-20T08:32:00.338Z,1021.77
2023-03-20T08:32:10.477Z,1021.78
2023-03-20T08:32:20.714Z,1021.73
2023-03-20T08:32:30.756Z,1021.74
2023-03-20T08:32:40.910Z,1021.71
2023-03-20T08:35:04.135Z,1021.54
2023-03-20T08:35:31.739Z,1021.55
2023-03-20T08:35:38.378Z,1021.56
2023-03-20T08:35:44.148Z,1021.45
2023-03-20T08:35:53.998Z,1021.54
2023-03-20T08:36:04.085Z,1021.51
2023-03-20T08:36:14.336Z,1021.53
2023-03-20T08:36:24.347Z,1021.46
2023-03-20T08:36:34.385Z,1021.48
2023-03-20T08:36:44.501Z,1021.43
2023-03-20T08:36:54.650Z,1021.44
2023-03-20T08:37:04.763Z,1021.44
2023-03-20T08:37:14.862Z,1021.42
2023-03-20T08:37:24.944Z,1021.44
2023-03-20T08:37:35.160Z,1021.49
2023-03-20T08:37:45.353Z,1021.50
2023-03-20T08:37:55.452Z,1021.47
2023-03-20T08:38:05.481Z,1021.49
2023-03-20T08:38:15.636Z,1021.49
2023-03-20T08:38:25.788Z,1021.46
2023-03-20T08:38:35.850Z,1021.48
2023-03-20T08:38:45.889Z,1021.47
2023-03-20T08:38:56.134Z,1021.42
2023-03-20T08:39:06.290Z,1021.45
2023-03-20T08:39:16.358Z,1021.40
2023-03-20T08:39:26.503Z,1021.33
2023-03-20T08:39:36.613Z,1021.41
2023-03-20T08:39:47.854Z,1021.41
2023-03-20T08:39:56.928Z,1021.36
2023-03-20T08:40:07.140Z,1021.38
2023-03-20T08:40:18.134Z,1021.39
2023-03-20T08:40:27.213Z,1021.39
2023-03-20T08:40:37.343Z,1021.34
2023-03-20T08:40:47.462Z,1021.41
2023-03-20T08:40:58.553Z,1021.38
2023-03-20T08:41:07.801Z,1021.36
2023-03-20T08:41:18.993Z,1021.41
2023-03-20T08:41:28.020Z,1021.41
2023-03-20T08:41:38.622Z,1021.34
2023-03-20T08:41:49.605Z,1021.51
2023-03-20T08:42:00.559Z,1021.49
2023-03-20T08:42:08.358Z,1021.47
2023-03-20T08:42:18.592Z,1021.52
2023-03-20T08:42:28.762Z,1021.53
2023-03-20T08:42:41.710Z,1021.55
2023-03-20T08:42:49.079Z,1021.55
2023-03-20T08:42:59.270Z,1021.59
2023-03-20T08:43:09.257Z,1021.59
2023-03-20T08:43:20.008Z,1021.63
2023-03-20T08:43:29.421Z,1021.61
2023-03-20T08:43:39.820Z,1021.62
2023-03-20T08:43:49.637Z,1021.56
2023-03-20T08:43:59.795Z,1021.61
2023-03-20T08:44:09.913Z,1021.59
2023-03-20T08:44:20.220Z,1021.67
2023-03-20T08:44:30.173Z,1021.60
2023-03-20T08:44:40.396Z,1021.68
2023-03-20T08:44:50.527Z,1021.63
2023-03-20T08:45:00.618Z,1021.57
2023-03-20T08:45:10.727Z,1021.56
2023-03-20T08:45:21.688Z,1021.56
2023-03-20T08:45:31.014Z,1021.57
2023-03-20T08:45:41.136Z,1021.57
2023-03-20T08:45:51.223Z,1021.57
2023-03-20T08:46:01.456Z,1021.56
2023-03-20T08:46:11.479Z,1021.52
2023-03-20T08:46:21.577Z,1021.59
2023-03-20T08:46:32.666Z,1021.53
2023-03-20T08:46:41.845Z,1021.49
2023-03-20T08:46:51.917Z,1021.51
2023-03-20T08:47:02.196Z,1021.52
2023-03-20T08:47:12.137Z,1021.51
2023-03-20T08:47:22.182Z,1021.49
2023-03-20T08:47:32.414Z,1021.52
2023-03-20T08:47:42.486Z,1021.57
2023-03-20T08:47:52.638Z,1021.57
2023-03-20T08:48:02.843Z,1021.62
2023-03-20T08:48:12.887Z,1021.60
2023-03-20T08:48:23.051Z,1021.54
2023-03-20T08:48:33.103Z,1021.59
2023-03-20T08:48:43.279Z,1021.60
2023-03-20T08:48:53.354Z,1021.54
2023-03-20T08:49:03.611Z,1021.62
2023-03-20T08:49:13.562Z,1021.62
2023-03-20T08:49:23.615Z,1021.62
2023-03-20T08:49:33.767Z,1021.62
2023-03-20T08:49:44.023Z,1021.62
2023-03-20T08:49:54.061Z,1021.65
2023-03-20T08:50:04.172Z,1021.64
2023-03-20T08:50:14.362Z,1021.67
2023-03-20T08:50:24.413Z,1021.68
2023-03-20T08:50:34.572Z,1021.69
2023-03-20T08:50:46.788Z,1021.65
2023-03-20T08:50:54.772Z,1021.71
2023-03-20T08:51:04.867Z,1021.68
2023-03-20T08:51:16.980Z,1021.69
2023-03-20T08:51:25.093Z,1021.71
2023-03-20T08:51:35.167Z,1021.73
2023-03-20T08:51:45.402Z,1021.69
2023-03-20T08:51:55.643Z,1021.74
2023-03-20T08:52:05.672Z,1021.71
2023-03-20T08:52:15.737Z,1021.76
2023-03-20T08:52:25.939Z,1021.76
2023-03-20T08:52:35.981Z,1021.78
2023-03-20T08:52:46.295Z,1021.73
2023-03-20T08:52:56.483Z,1021.74
2023-03-20T08:53:06.548Z,1021.72
2023-03-20T08:53:16.519Z,1021.70
2023-03-20T08:53:26.663Z,1021.71
2023-03-20T08:53:36.851Z,1021.66
2023-03-20T08:53:46.915Z,1021.68
2023-03-20T08:53:57.082Z,1021.68
2023-03-20T08:54:07.095Z,1021.66
2023-03-20T08:54:17.497Z,1021.62
2023-03-20T08:54:27.518Z,1021.69
2023-03-20T08:54:37.566Z,1021.66
2023-03-20T08:54:47.727Z,1021.62
2023-03-20T08:54:58.567Z,1021.62
2023-03-20T08:55:08.026Z,1021.58
2023-03-20T08:55:18.064Z,1021.64
2023-03-20T08:55:28.152Z,1021.69
2023-03-20T08:55:38.512Z,1021.75
2023-03-20T08:55:48.406Z,1021.60
2023-03-20T08:55:59.263Z,1021.69
2023-03-20T08:56:08.649Z,1021.74
2023-03-20T08:56:18.776Z,1021.76
2023-03-20T08:56:28.723Z,1021.77
2023-03-20T08:56:38.976Z,1021.71
2023-03-20T08:56:49.023Z,1021.71
2023-03-20T08:56:59.604Z,1021.76
2023-03-20T08:57:09.300Z,1021.76
2023-03-20T08:57:19.362Z,1021.76
2023-03-20T08:57:29.738Z,1021.78
2023-03-20T08:57:39.828Z,1021.73
2023-03-20T08:57:49.834Z,1021.72
